createdAt,value
2018-07-08T00:02:21.140Z,18.90
2018-07-08T00:07:15.740Z,18.80
2018-07-08T00:12:10.356Z,18.70
2018-07-08T00:17:04.964Z,18.70
2018-07-08T00:21:59.537Z,18.70
2018-07-08T00:26:54.096Z,18.70
2018-07-08T00:36:42.977Z,18.70
2018-07-08T00:41:37.626Z,18.70
2018-07-08T00:46:32.630Z,18.70
2018-07-08T00:51:27.204Z,18.70
2018-07-08T00:56:21.816Z,18.70
2018-07-08T01:01:16.367Z,18.70
2018-07-08T01:06:11.079Z,18.60
2018-07-08T01:11:05.666Z,18.60
2018-07-08T01:16:00.253Z,18.60
2018-07-08T01:20:54.846Z,18.60
2018-07-08T01:26:09.683Z,18.60
2018-07-08T01:31:04.409Z,18.60
2018-07-08T01:35:59.008Z,18.60
2018-07-08T01:40:53.557Z,18.60
2018-07-08T01:45:48.130Z,18.60
2018-07-08T01:50:42.690Z,18.60
2018-07-08T01:55:37.265Z,18.60
2018-07-08T02:00:31.869Z,18.70
2018-07-08T02:05:26.413Z,18.60
2018-07-08T02:10:20.981Z,18.60
2018-07-08T02:15:16.450Z,18.60
2018-07-08T02:20:11.023Z,18.40
2018-07-08T02:25:05.697Z,18.40
2018-07-08T02:30:00.328Z,18.30
2018-07-08T02:34:55.306Z,18.20
2018-07-08T02:39:49.884Z,18.20
2018-07-08T02:44:44.526Z,18.20
2018-07-08T02:49:39.451Z,18.10
2018-07-08T02:54:33.997Z,18.00
2018-07-08T02:59:28.604Z,18.00
2018-07-08T03:04:23.124Z,17.80
2018-07-08T03:09:17.657Z,17.60
2018-07-08T03:14:12.205Z,17.50
2018-07-08T03:19:06.913Z,17.50
2018-07-08T03:24:01.514Z,17.50
2018-07-08T03:28:56.016Z,17.50
2018-07-08T03:33:50.532Z,17.50
2018-07-08T03:38:45.140Z,17.40
2018-07-08T03:48:33.889Z,17.20
2018-07-08T03:53:28.410Z,17.20
2018-07-08T03:58:22.954Z,17.20
2018-07-08T04:08:11.760Z,17.30
2018-07-08T04:13:06.356Z,17.60
2018-07-08T04:18:05.107Z,17.90
2018-07-08T04:22:59.665Z,18.60
2018-07-08T04:27:54.238Z,19.30
2018-07-08T04:32:48.802Z,20.10
2018-07-08T04:37:43.346Z,20.70
2018-07-08T04:42:37.906Z,21.10
2018-07-08T04:47:32.422Z,22.10
2018-07-08T04:52:26.953Z,23.00
2018-07-08T04:57:21.491Z,23.70
2018-07-08T05:02:16.592Z,23.70
2018-07-08T05:07:11.112Z,24.90
2018-07-08T05:12:05.721Z,25.30
2018-07-08T05:17:00.212Z,26.10
2018-07-08T05:21:54.754Z,26.50
2018-07-08T05:26:49.465Z,26.70
2018-07-08T05:31:44.033Z,26.90
2018-07-08T05:36:38.756Z,26.90
2018-07-08T05:41:33.375Z,27.40
2018-07-08T05:46:27.974Z,27.50
2018-07-08T05:51:22.702Z,27.20
2018-07-08T05:56:17.282Z,27.90
2018-07-08T06:01:12.901Z,28.00
2018-07-08T06:06:08.156Z,28.10
2018-07-08T06:11:02.929Z,28.20
2018-07-08T06:15:57.897Z,28.00
2018-07-08T06:20:52.672Z,27.90
2018-07-08T06:25:47.467Z,27.60
2018-07-08T06:30:42.400Z,28.10
2018-07-08T06:35:37.182Z,27.80
2018-07-08T06:40:31.862Z,27.50
2018-07-08T06:45:26.790Z,27.00
2018-07-08T06:50:21.336Z,26.30
2018-07-08T06:55:15.984Z,25.60
2018-07-08T07:00:10.866Z,25.20
2018-07-08T07:09:59.750Z,24.20
2018-07-08T07:14:54.371Z,24.30
2018-07-08T07:19:48.927Z,24.60
2018-07-08T07:24:43.484Z,24.70
2018-07-08T07:29:38.161Z,24.60
2018-07-08T07:34:32.760Z,24.70
2018-07-08T07:39:27.426Z,25.00
2018-07-08T07:44:21.990Z,24.80
2018-07-08T07:49:16.652Z,24.70
2018-07-08T07:54:11.380Z,24.80
2018-07-08T07:59:06.321Z,24.70
2018-07-08T08:04:01.014Z,24.60
2018-07-08T08:14:04.054Z,24.80
2018-07-08T08:18:59.107Z,25.00
2018-07-08T08:23:53.983Z,25.30
2018-07-08T08:28:48.688Z,25.30
2018-07-08T08:33:46.477Z,25.70
2018-07-08T08:38:41.073Z,25.90
2018-07-08T08:43:35.748Z,26.20
2018-07-08T08:48:31.233Z,26.20
2018-07-08T08:53:25.926Z,25.70
2018-07-08T08:58:20.607Z,25.80
2018-07-08T09:03:15.457Z,26.10
2018-07-08T09:08:10.052Z,25.90
2018-07-08T09:13:04.942Z,26.00
2018-07-08T09:17:59.554Z,26.60
2018-07-08T09:22:54.577Z,27.00
2018-07-08T09:27:49.230Z,26.90
2018-07-08T09:32:44.041Z,27.10
2018-07-08T09:47:27.701Z,27.00
2018-07-08T09:52:22.422Z,27.20
2018-07-08T09:57:17.017Z,27.50
2018-07-08T10:02:11.769Z,27.90
2018-07-08T10:07:06.492Z,28.30
2018-07-08T10:12:01.465Z,28.70
2018-07-08T10:16:56.396Z,28.90
2018-07-08T10:21:51.826Z,29.20
2018-07-08T10:26:54.897Z,29.20
2018-07-08T10:31:52.371Z,29.00
2018-07-08T10:36:47.533Z,29.40
2018-07-08T10:41:42.929Z,29.20
2018-07-08T10:46:38.135Z,29.40
2018-07-08T10:51:32.944Z,29.90
2018-07-08T10:56:28.885Z,30.20
2018-07-08T11:01:23.837Z,30.40
2018-07-08T11:06:18.639Z,30.60
2018-07-08T11:11:13.973Z,30.60
2018-07-08T11:16:09.017Z,30.60
2018-07-08T11:21:04.682Z,30.20
2018-07-08T11:25:59.532Z,29.40
2018-07-08T11:30:54.212Z,28.90
2018-07-08T11:35:49.005Z,28.00
2018-07-08T11:40:43.852Z,27.50
2018-07-08T11:45:38.730Z,27.40
2018-07-08T11:50:33.457Z,27.80
2018-07-08T11:55:28.723Z,28.70
2018-07-08T12:00:23.421Z,29.20
2018-07-08T12:05:18.124Z,29.60
2018-07-08T12:10:13.963Z,29.80
2018-07-08T12:15:08.804Z,29.90
2018-07-08T12:20:04.038Z,30.30
2018-07-08T12:24:59.227Z,30.10
2018-07-08T12:29:53.882Z,30.20
2018-07-08T12:39:43.241Z,29.50
2018-07-08T12:44:37.926Z,29.40
2018-07-08T12:49:32.796Z,29.20
2018-07-08T12:54:27.527Z,29.00
2018-07-08T12:59:22.312Z,29.00
2018-07-08T13:04:17.197Z,29.10
2018-07-08T13:09:11.865Z,29.00
2018-07-08T13:14:07.346Z,28.90
2018-07-08T13:19:01.955Z,29.30
2018-07-08T13:23:56.721Z,30.10
2018-07-08T13:28:51.371Z,30.70
2018-07-08T13:38:40.765Z,31.30
2018-07-08T13:43:35.661Z,30.40
2018-07-08T13:48:30.413Z,29.00
2018-07-08T14:03:13.675Z,28.20
2018-07-08T14:08:08.473Z,28.40
2018-07-08T14:13:03.577Z,28.30
2018-07-08T14:17:58.386Z,28.50
2018-07-08T14:22:53.161Z,28.40
2018-07-08T14:32:42.429Z,28.00
2018-07-08T14:37:37.237Z,28.50
2018-07-08T14:42:31.785Z,28.60
2018-07-08T14:47:26.392Z,28.30
2018-07-08T14:52:21.118Z,27.30
2018-07-08T14:57:15.882Z,27.30
2018-07-08T15:02:10.602Z,27.20
2018-07-08T15:07:05.441Z,26.90
2018-07-08T15:12:00.165Z,27.20
2018-07-08T15:16:54.793Z,27.40
2018-07-08T15:21:49.588Z,27.40
2018-07-08T15:26:44.320Z,27.90
2018-07-08T15:31:39.023Z,28.00
2018-07-08T15:36:33.885Z,28.60
2018-07-08T15:41:28.636Z,27.90
2018-07-08T15:46:23.289Z,28.10
2018-07-08T15:51:17.910Z,28.20
2018-07-08T15:56:12.713Z,28.00
2018-07-08T16:01:07.558Z,27.50
2018-07-08T16:06:02.242Z,27.40
2018-07-08T16:10:56.905Z,27.30
2018-07-08T16:15:51.785Z,27.10
2018-07-08T16:20:46.305Z,27.50
2018-07-08T16:25:46.002Z,27.40
2018-07-08T16:35:35.097Z,27.10
2018-07-08T16:40:29.933Z,27.40
2018-07-08T16:45:24.670Z,27.10
2018-07-08T16:50:20.477Z,27.10
2018-07-08T16:55:15.709Z,27.00
2018-07-08T17:00:12.181Z,27.10
2018-07-08T17:05:06.985Z,27.30
2018-07-08T17:10:01.598Z,27.30
2018-07-08T17:14:56.215Z,27.40
2018-07-08T17:19:52.899Z,27.40
2018-07-08T17:24:47.757Z,27.30
2018-07-08T17:29:43.101Z,27.30
2018-07-08T17:34:38.136Z,27.30
2018-07-08T17:39:32.850Z,27.10
2018-07-08T17:44:27.461Z,26.60
2018-07-08T17:49:22.156Z,26.40
2018-07-08T17:54:16.688Z,26.50
2018-07-08T17:59:11.260Z,26.20
2018-07-08T18:04:06.092Z,26.10
2018-07-08T18:09:00.826Z,26.00
2018-07-08T18:13:56.187Z,26.00
2018-07-08T18:18:50.929Z,25.70
2018-07-08T18:23:45.547Z,25.70
2018-07-08T18:28:40.105Z,25.70
2018-07-08T18:33:34.925Z,25.50
2018-07-08T18:38:29.488Z,25.20
2018-07-08T18:48:18.948Z,24.60
2018-07-08T18:53:13.525Z,24.70
2018-07-08T18:58:08.110Z,24.80
2018-07-08T19:03:02.668Z,24.90
2018-07-08T19:07:57.432Z,25.30
2018-07-08T19:12:51.961Z,25.10
2018-07-08T19:17:46.579Z,24.90
2018-07-08T19:22:41.222Z,24.40
2018-07-08T19:27:35.898Z,24.00
2018-07-08T19:32:30.522Z,23.80
2018-07-08T19:37:25.641Z,23.70
2018-07-08T19:42:20.334Z,23.40
2018-07-08T19:47:14.913Z,23.40
2018-07-08T19:52:09.451Z,23.20
2018-07-08T19:57:04.146Z,23.20
2018-07-08T20:01:58.935Z,23.10
2018-07-08T20:11:47.897Z,22.90
2018-07-08T20:16:42.466Z,22.80
2018-07-08T20:21:37.303Z,22.80
2018-07-08T20:26:31.777Z,22.80
2018-07-08T20:31:26.445Z,22.80
2018-07-08T20:36:21.128Z,22.70
2018-07-08T20:41:15.765Z,22.60
2018-07-08T20:46:10.567Z,22.60
2018-07-08T20:51:05.225Z,22.70
2018-07-08T20:56:00.597Z,22.60
2018-07-08T21:00:55.203Z,22.70
2018-07-08T21:05:49.912Z,22.60
2018-07-08T21:10:45.253Z,22.60
2018-07-08T21:20:34.592Z,22.40
2018-07-08T21:25:29.182Z,22.20
2018-07-08T21:35:18.058Z,22.10
2018-07-08T21:40:12.922Z,21.90
2018-07-08T21:45:07.506Z,21.70
2018-07-08T21:50:02.194Z,21.70
2018-07-08T21:54:56.825Z,21.50
2018-07-08T21:59:51.441Z,21.40
2018-07-08T22:04:46.133Z,21.20
2018-07-08T22:09:40.893Z,20.90
2018-07-08T22:14:35.433Z,20.80
2018-07-08T22:19:29.947Z,20.60
2018-07-08T22:24:24.509Z,20.50
2018-07-08T22:29:19.095Z,20.40
2018-07-08T22:34:13.757Z,20.30
2018-07-08T22:39:09.438Z,20.20
2018-07-08T22:44:03.978Z,20.10
2018-07-08T22:48:58.545Z,20.00
2018-07-08T22:53:53.559Z,19.90
2018-07-08T22:58:48.125Z,19.80
2018-07-08T23:03:47.787Z,19.80
2018-07-08T23:08:42.360Z,19.80
2018-07-08T23:13:36.897Z,19.70
2018-07-08T23:18:31.453Z,19.60
2018-07-08T23:23:25.986Z,19.50
2018-07-08T23:28:20.509Z,19.30
2018-07-08T23:33:16.062Z,19.20
2018-07-08T23:38:10.611Z,19.10
2018-07-08T23:43:05.453Z,19.00
2018-07-08T23:48:00.000Z,18.90
2018-07-08T23:52:54.649Z,18.90
2018-07-08T23:57:49.256Z,19.00
